createdAt,value
2018-11-22T00:00:33.751Z,1006.04
2018-11-22T00:01:33.739Z,1006.01
2018-11-22T00:02:33.728Z,1006.04
2018-11-22T00:03:33.714Z,1006.05
2018-11-22T00:04:33.701Z,1006.01
2018-11-22T00:05:33.688Z,1006.08
2018-11-22T00:06:33.692Z,1006.05
2018-11-22T00:07:33.678Z,1006.07
2018-11-22T00:08:33.665Z,1006.10
2018-11-22T00:09:33.702Z,1006.07
2018-11-22T00:10:33.658Z,1006.11
2018-11-22T00:11:33.624Z,1006.11
2018-11-22T00:12:33.618Z,1006.11
2018-11-22T00:13:33.608Z,1006.11
2018-11-22T00:14:33.591Z,1006.10
2018-11-22T00:15:33.594Z,1006.12
2018-11-22T00:16:33.591Z,1006.13
2018-11-22T00:17:33.556Z,1006.13
2018-11-22T00:18:33.639Z,1006.16
2018-11-22T00:19:33.541Z,1006.17
2018-11-22T00:20:33.532Z,1006.14
2018-11-22T00:21:33.515Z,1006.15
2018-11-22T00:22:33.506Z,1006.14
2018-11-22T00:23:33.492Z,1006.14
2018-11-22T00:24:33.482Z,1006.14
2018-11-22T00:25:33.482Z,1006.10
2018-11-22T00:26:33.482Z,1006.10
2018-11-22T00:27:33.460Z,1006.11
2018-11-22T00:28:33.440Z,1006.06
2018-11-22T00:29:33.492Z,1006.08
2018-11-22T00:30:33.445Z,1006.10
2018-11-22T00:31:33.500Z,1006.03
2018-11-22T00:32:33.406Z,1006.08
2018-11-22T00:33:33.399Z,1006.07
2018-11-22T00:34:33.378Z,1006.09
2018-11-22T00:35:33.360Z,1006.10
2018-11-22T00:36:33.356Z,1006.10
2018-11-22T00:37:33.341Z,1006.12
2018-11-22T00:38:33.369Z,1006.13
2018-11-22T00:39:33.341Z,1006.14
2018-11-22T00:40:33.308Z,1006.11
2018-11-22T00:41:33.303Z,1006.16
2018-11-22T00:42:33.377Z,1006.14
2018-11-22T00:43:33.275Z,1006.17
2018-11-22T00:44:33.267Z,1006.20
2018-11-22T00:45:33.256Z,1006.20
2018-11-22T00:46:33.241Z,1006.18
2018-11-22T00:47:33.232Z,1006.22
2018-11-22T00:48:33.231Z,1006.24
2018-11-22T00:49:33.209Z,1006.24
2018-11-22T00:50:33.206Z,1006.28
2018-11-22T00:51:33.222Z,1006.28
2018-11-22T00:52:33.229Z,1006.26
2018-11-22T00:53:33.178Z,1006.26
2018-11-22T00:54:33.165Z,1006.33
2018-11-22T00:55:33.182Z,1006.33
2018-11-22T00:56:33.140Z,1006.37
2018-11-22T00:57:33.126Z,1006.32
2018-11-22T00:58:33.113Z,1006.34
2018-11-22T00:59:33.138Z,1006.39
2018-11-22T01:00:33.095Z,1006.36
2018-11-22T01:01:33.093Z,1006.41
2018-11-22T01:02:33.089Z,1006.44
2018-11-22T01:03:33.063Z,1006.43
2018-11-22T01:04:33.050Z,1006.45
2018-11-22T01:05:33.062Z,1006.45
2018-11-22T01:06:33.030Z,1006.43
2018-11-22T01:07:33.021Z,1006.46
2018-11-22T01:08:33.008Z,1006.43
2018-11-22T01:09:33.000Z,1006.46
2018-11-22T01:10:33.023Z,1006.48
2018-11-22T01:11:32.974Z,1006.49
2018-11-22T01:12:32.970Z,1006.45
2018-11-22T01:13:32.957Z,1006.47
2018-11-22T01:14:32.964Z,1006.48
2018-11-22T01:15:32.931Z,1006.51
2018-11-22T01:16:32.925Z,1006.46
2018-11-22T01:17:32.910Z,1006.47
2018-11-22T01:18:32.900Z,1006.47
2018-11-22T01:19:32.899Z,1006.47
2018-11-22T01:20:32.897Z,1006.48
2018-11-22T01:21:32.875Z,1006.49
2018-11-22T01:22:32.862Z,1006.49
2018-11-22T01:23:32.857Z,1006.52
2018-11-22T01:24:32.839Z,1006.54
2018-11-22T01:25:32.845Z,1006.54
2018-11-22T01:26:32.845Z,1006.54
2018-11-22T01:27:32.820Z,1006.51
2018-11-22T01:28:32.801Z,1006.52
2018-11-22T01:29:32.778Z,1006.53
2018-11-22T01:30:32.776Z,1006.52
2018-11-22T01:31:32.773Z,1006.51
2018-11-22T01:32:32.765Z,1006.55
2018-11-22T01:33:32.731Z,1006.51
2018-11-22T01:34:32.722Z,1006.54
2018-11-22T01:35:32.717Z,1006.54
2018-11-22T01:36:32.703Z,1006.55
2018-11-22T01:37:32.709Z,1006.54
2018-11-22T01:38:32.687Z,1006.55
2018-11-22T01:39:32.683Z,1006.48
2018-11-22T01:40:32.659Z,1006.53
2018-11-22T01:41:32.655Z,1006.49
2018-11-22T01:42:32.682Z,1006.47
2018-11-22T01:43:32.635Z,1006.48
2018-11-22T01:44:32.621Z,1006.43
2018-11-22T01:45:32.612Z,1006.44
2018-11-22T01:46:32.600Z,1006.47
2018-11-22T01:47:32.605Z,1006.46
2018-11-22T01:48:32.583Z,1006.46
2018-11-22T01:49:32.580Z,1006.42
2018-11-22T01:50:32.553Z,1006.43
2018-11-22T01:51:32.547Z,1006.40
2018-11-22T01:52:32.556Z,1006.40
2018-11-22T01:53:32.533Z,1006.46
2018-11-22T01:54:32.515Z,1006.43
2018-11-22T01:55:32.505Z,1006.37
2018-11-22T01:56:32.491Z,1006.38
2018-11-22T01:57:32.480Z,1006.38
2018-11-22T01:58:32.474Z,1006.40
2018-11-22T01:59:32.461Z,1006.37
2018-11-22T02:00:32.447Z,1006.39
2018-11-22T02:01:32.455Z,1006.37
2018-11-22T02:02:32.428Z,1006.42
2018-11-22T02:03:32.455Z,1006.46
2018-11-22T02:04:32.403Z,1006.45
2018-11-22T02:05:32.400Z,1006.41
2018-11-22T02:06:32.392Z,1006.42
2018-11-22T02:07:32.383Z,1006.41
2018-11-22T02:08:32.370Z,1006.43
2018-11-22T02:09:32.347Z,1006.43
2018-11-22T02:10:32.344Z,1006.41
2018-11-22T02:11:32.333Z,1006.41
2018-11-22T02:12:32.348Z,1006.36
2018-11-22T02:13:32.305Z,1006.40
2018-11-22T02:14:32.310Z,1006.38
2018-11-22T02:15:32.282Z,1006.37
2018-11-22T02:16:32.273Z,1006.36
2018-11-22T02:17:32.260Z,1006.35
2018-11-22T02:18:32.276Z,1006.33
2018-11-22T02:19:32.240Z,1006.32
2018-11-22T02:20:32.241Z,1006.33
2018-11-22T02:21:32.225Z,1006.36
2018-11-22T02:22:32.209Z,1006.34
2018-11-22T02:23:32.206Z,1006.38
2018-11-22T02:24:32.205Z,1006.34
2018-11-22T02:25:32.169Z,1006.33
2018-11-22T02:26:32.165Z,1006.32
2018-11-22T02:27:32.157Z,1006.30
2018-11-22T02:28:32.173Z,1006.31
2018-11-22T02:29:32.144Z,1006.30
2018-11-22T02:30:32.137Z,1006.32
2018-11-22T02:31:32.115Z,1006.29
2018-11-22T02:32:32.092Z,1006.29
2018-11-22T02:33:32.088Z,1006.28
2018-11-22T02:34:32.079Z,1006.30
2018-11-22T02:35:32.090Z,1006.29
2018-11-22T02:36:32.055Z,1006.26
2018-11-22T02:37:32.072Z,1006.22
2018-11-22T02:38:32.029Z,1006.24
2018-11-22T02:39:32.028Z,1006.23
2018-11-22T02:40:32.032Z,1006.28
2018-11-22T02:41:32.007Z,1006.23
2018-11-22T02:42:31.987Z,1006.30
2018-11-22T02:43:31.983Z,1006.29
2018-11-22T02:44:31.972Z,1006.30
2018-11-22T02:45:31.957Z,1006.31
2018-11-22T02:46:31.939Z,1006.28
2018-11-22T02:47:31.944Z,1006.29
2018-11-22T02:48:31.928Z,1006.29
2018-11-22T02:49:31.910Z,1006.28
2018-11-22T02:50:31.902Z,1006.26
2018-11-22T02:51:31.897Z,1006.25
2018-11-22T02:52:31.878Z,1006.25
2018-11-22T02:53:31.876Z,1006.26
2018-11-22T02:54:31.889Z,1006.23
2018-11-22T02:55:31.860Z,1006.19
2018-11-22T02:56:31.833Z,1006.20
2018-11-22T02:57:31.836Z,1006.22
2018-11-22T02:58:31.808Z,1006.23
2018-11-22T03:14:13.464Z,1006.22
2018-11-22T03:15:13.435Z,1006.23
2018-11-22T03:16:13.407Z,1006.23
2018-11-22T03:17:13.388Z,1006.24
2018-11-22T03:18:13.377Z,1006.24
2018-11-22T03:19:13.367Z,1006.24
2018-11-22T03:20:13.347Z,1006.22
2018-11-22T03:21:13.346Z,1006.25
2018-11-22T03:22:13.329Z,1006.25
2018-11-22T03:23:13.309Z,1006.27
2018-11-22T03:24:13.314Z,1006.25
2018-11-22T03:25:13.287Z,1006.24
2018-11-22T03:26:13.272Z,1006.26
2018-11-22T03:27:13.260Z,1006.26
2018-11-22T03:28:13.250Z,1006.24
2018-11-22T03:29:13.244Z,1006.22
2018-11-22T03:30:13.240Z,1006.27
2018-11-22T03:31:13.226Z,1006.27
2018-11-22T03:32:13.203Z,1006.30
2018-11-22T03:33:13.188Z,1006.31
2018-11-22T03:34:13.182Z,1006.30
2018-11-22T03:35:13.165Z,1006.27
2018-11-22T03:36:13.155Z,1006.28
2018-11-22T03:37:13.140Z,1006.24
2018-11-22T03:38:13.133Z,1006.24
2018-11-22T03:39:13.125Z,1006.24
2018-11-22T03:40:13.109Z,1006.27
2018-11-22T03:41:13.097Z,1006.23
2018-11-22T03:42:13.084Z,1006.21
2018-11-22T03:43:13.084Z,1006.22
2018-11-22T03:44:13.073Z,1006.21
2018-11-22T03:45:13.060Z,1006.16
2018-11-22T03:46:13.042Z,1006.15
2018-11-22T03:47:13.041Z,1006.18
2018-11-22T03:48:13.017Z,1006.17
2018-11-22T03:49:13.014Z,1006.17
2018-11-22T03:50:13.010Z,1006.19
2018-11-22T03:51:12.996Z,1006.22
2018-11-22T03:52:12.978Z,1006.25
2018-11-22T03:53:12.970Z,1006.23
2018-11-22T03:54:12.957Z,1006.23
2018-11-22T03:55:12.953Z,1006.23
2018-11-22T03:56:12.982Z,1006.17
2018-11-22T03:57:12.920Z,1006.22
2018-11-22T03:58:12.906Z,1006.18
2018-11-22T03:59:12.906Z,1006.20
2018-11-22T04:00:12.901Z,1006.21
2018-11-22T04:01:12.877Z,1006.22
2018-11-22T04:02:12.866Z,1006.22
2018-11-22T04:03:12.906Z,1006.24
2018-11-22T04:04:12.848Z,1006.27
2018-11-22T04:05:12.840Z,1006.24
2018-11-22T04:06:12.825Z,1006.25
2018-11-22T04:07:12.821Z,1006.26
2018-11-22T04:08:12.805Z,1006.26
2018-11-22T04:09:12.798Z,1006.23
2018-11-22T04:10:12.814Z,1006.27
2018-11-22T04:11:12.769Z,1006.26
2018-11-22T04:12:12.764Z,1006.28
2018-11-22T04:13:12.759Z,1006.28
2018-11-22T04:14:12.744Z,1006.29
2018-11-22T04:15:12.730Z,1006.28
2018-11-22T04:16:12.731Z,1006.27
2018-11-22T04:17:12.702Z,1006.30
2018-11-22T04:18:12.705Z,1006.30
2018-11-22T04:19:12.688Z,1006.30
2018-11-22T04:20:12.678Z,1006.29
2018-11-22T04:21:12.701Z,1006.31
2018-11-22T04:22:12.644Z,1006.31
2018-11-22T04:23:12.641Z,1006.31
2018-11-22T04:24:12.625Z,1006.33
2018-11-22T04:25:12.617Z,1006.30
2018-11-22T04:26:12.607Z,1006.29
2018-11-22T04:27:12.600Z,1006.30
2018-11-22T04:28:12.588Z,1006.30
2018-11-22T04:29:12.581Z,1006.29
2018-11-22T04:30:12.574Z,1006.27
2018-11-22T04:31:12.558Z,1006.29
2018-11-22T04:32:12.541Z,1006.27
2018-11-22T04:33:12.543Z,1006.27
2018-11-22T04:34:12.525Z,1006.25
2018-11-22T04:35:12.515Z,1006.31
2018-11-22T04:36:12.510Z,1006.27
2018-11-22T04:37:12.492Z,1006.26
2018-11-22T04:38:12.491Z,1006.29
2018-11-22T04:39:12.468Z,1006.25
2018-11-22T04:40:12.460Z,1006.24
2018-11-22T04:41:12.449Z,1006.26
2018-11-22T04:42:12.448Z,1006.27
2018-11-22T04:43:12.422Z,1006.22
2018-11-22T04:44:12.435Z,1006.23
2018-11-22T04:45:12.421Z,1006.25
2018-11-22T04:46:12.395Z,1006.25
2018-11-22T04:47:12.381Z,1006.25
2018-11-22T04:48:12.378Z,1006.26
2018-11-22T04:49:12.359Z,1006.27
2018-11-22T04:50:12.358Z,1006.29
2018-11-22T04:51:12.349Z,1006.29
2018-11-22T04:52:12.321Z,1006.28
2018-11-22T04:53:12.336Z,1006.30
2018-11-22T04:54:12.302Z,1006.31
2018-11-22T04:55:12.290Z,1006.35
2018-11-22T04:56:12.286Z,1006.33
2018-11-22T04:57:12.269Z,1006.33
2018-11-22T04:58:12.275Z,1006.33
2018-11-22T04:59:12.254Z,1006.34
2018-11-22T05:00:12.237Z,1006.32
2018-11-22T05:01:12.237Z,1006.34
2018-11-22T05:02:12.223Z,1006.34
2018-11-22T05:03:12.213Z,1006.40
2018-11-22T05:04:12.230Z,1006.36
2018-11-22T05:05:12.196Z,1006.38
2018-11-22T05:06:12.179Z,1006.38
2018-11-22T05:07:12.169Z,1006.32
2018-11-22T05:08:12.169Z,1006.33
2018-11-22T05:09:12.147Z,1006.32
2018-11-22T05:10:12.140Z,1006.28
2018-11-22T05:11:12.125Z,1006.34
2018-11-22T05:12:12.114Z,1006.29
2018-11-22T05:13:12.105Z,1006.33
2018-11-22T05:14:12.105Z,1006.32
2018-11-22T05:15:12.087Z,1006.34
2018-11-22T05:16:12.069Z,1006.34
2018-11-22T05:17:12.068Z,1006.35
2018-11-22T05:18:12.060Z,1006.37
2018-11-22T05:19:12.056Z,1006.34
2018-11-22T05:20:12.032Z,1006.33
2018-11-22T05:21:12.015Z,1006.34
2018-11-22T05:22:12.009Z,1006.38
2018-11-22T05:23:12.003Z,1006.40
2018-11-22T05:24:11.986Z,1006.38
2018-11-22T05:25:11.970Z,1006.36
2018-11-22T05:26:11.964Z,1006.38
2018-11-22T05:27:11.989Z,1006.38
2018-11-22T05:28:11.971Z,1006.39
2018-11-22T05:29:12.445Z,1006.37
2018-11-22T05:30:11.921Z,1006.40
2018-11-22T05:31:11.915Z,1006.39
2018-11-22T05:32:11.907Z,1006.34
2018-11-22T05:33:11.890Z,1006.40
2018-11-22T05:34:11.885Z,1006.38
2018-11-22T05:35:11.897Z,1006.38
2018-11-22T05:36:11.854Z,1006.39
2018-11-22T05:37:11.845Z,1006.37
2018-11-22T05:38:11.836Z,1006.40
2018-11-22T05:39:11.823Z,1006.39
2018-11-22T05:40:11.828Z,1006.40
2018-11-22T05:41:11.824Z,1006.38
2018-11-22T05:42:11.802Z,1006.42
2018-11-22T05:43:11.806Z,1006.43
2018-11-22T05:44:11.771Z,1006.39
2018-11-22T05:45:11.759Z,1006.41
2018-11-22T05:46:11.762Z,1006.42
2018-11-22T05:47:11.738Z,1006.42
2018-11-22T05:48:11.728Z,1006.43
2018-11-22T05:49:11.711Z,1006.45
2018-11-22T05:50:11.709Z,1006.48
2018-11-22T05:51:11.691Z,1006.46
2018-11-22T05:52:11.688Z,1006.50
2018-11-22T05:53:11.677Z,1006.50
2018-11-22T05:54:11.672Z,1006.54
2018-11-22T05:55:11.656Z,1006.51
2018-11-22T05:56:11.638Z,1006.50
2018-11-22T05:57:11.629Z,1006.53
2018-11-22T05:58:11.626Z,1006.52
2018-11-22T05:59:11.608Z,1006.51
2018-11-22T06:00:11.604Z,1006.54
2018-11-22T06:01:12.100Z,1006.55
2018-11-22T06:02:11.574Z,1006.52
2018-11-22T06:03:11.562Z,1006.54
2018-11-22T06:04:11.553Z,1006.55
2018-11-22T06:05:11.545Z,1006.50
2018-11-22T06:06:11.539Z,1006.52
2018-11-22T06:07:11.533Z,1006.51
2018-11-22T06:08:11.538Z,1006.53
2018-11-22T06:09:11.493Z,1006.51
2018-11-22T06:10:11.500Z,1006.52
2018-11-22T06:11:11.475Z,1006.54
2018-11-22T06:12:11.466Z,1006.52
2018-11-22T06:13:11.459Z,1006.54
2018-11-22T06:14:11.445Z,1006.53
2018-11-22T06:15:11.430Z,1006.54
2018-11-22T06:16:11.449Z,1006.52
2018-11-22T06:17:11.420Z,1006.48
2018-11-22T06:18:11.402Z,1006.53
2018-11-22T06:19:11.386Z,1006.48
2018-11-22T06:20:11.376Z,1006.52
2018-11-22T06:21:11.369Z,1006.50
2018-11-22T06:22:11.360Z,1006.52
2018-11-22T06:23:11.354Z,1006.52
2018-11-22T06:24:11.353Z,1006.53
2018-11-22T06:25:11.326Z,1006.53
2018-11-22T06:26:11.314Z,1006.51
2018-11-22T06:27:11.302Z,1006.49
2018-11-22T06:28:11.289Z,1006.48
2018-11-22T06:29:11.283Z,1006.50
2018-11-22T06:30:11.267Z,1006.54
2018-11-22T06:31:11.262Z,1006.49
2018-11-22T06:32:11.259Z,1006.50
2018-11-22T06:33:11.244Z,1006.53
2018-11-22T06:34:11.237Z,1006.54
2018-11-22T06:35:11.218Z,1006.55
2018-11-22T06:36:11.206Z,1006.55
2018-11-22T06:37:11.193Z,1006.55
2018-11-22T06:38:11.189Z,1006.54
2018-11-22T06:39:11.176Z,1006.54
2018-11-22T06:40:11.185Z,1006.56
2018-11-22T06:41:11.149Z,1006.56
2018-11-22T06:42:11.240Z,1006.57
2018-11-22T06:43:11.131Z,1006.62
2018-11-22T06:44:11.130Z,1006.62
2018-11-22T06:45:11.114Z,1006.65
2018-11-22T06:46:11.112Z,1006.65
2018-11-22T06:47:11.085Z,1006.66
2018-11-22T06:48:11.069Z,1006.66
2018-11-22T06:49:11.066Z,1006.66
2018-11-22T06:50:11.070Z,1006.66
2018-11-22T06:51:11.049Z,1006.66
2018-11-22T06:52:11.034Z,1006.69
2018-11-22T06:53:11.016Z,1006.66
2018-11-22T06:54:11.006Z,1006.64
2018-11-22T06:55:11.000Z,1006.63
2018-11-22T06:56:11.028Z,1006.65
2018-11-22T06:57:10.979Z,1006.66
2018-11-22T06:58:10.966Z,1006.64
2018-11-22T06:59:10.944Z,1006.66
2018-11-22T07:00:10.937Z,1006.69
2018-11-22T07:01:10.925Z,1006.64
2018-11-22T07:02:10.928Z,1006.68
2018-11-22T07:03:10.914Z,1006.65
2018-11-22T07:04:10.892Z,1006.69
2018-11-22T07:05:10.882Z,1006.69
2018-11-22T07:06:10.874Z,1006.73
2018-11-22T07:07:10.945Z,1006.71
2018-11-22T07:08:10.850Z,1006.68
2018-11-22T07:09:10.838Z,1006.68
2018-11-22T07:10:10.821Z,1006.66
2018-11-22T07:11:10.828Z,1006.65
2018-11-22T07:12:10.803Z,1006.65
2018-11-22T07:13:10.796Z,1006.67
2018-11-22T07:14:10.784Z,1006.66
2018-11-22T07:15:10.770Z,1006.67
2018-11-22T07:16:10.759Z,1006.64
2018-11-22T07:17:10.749Z,1006.63
2018-11-22T07:18:10.738Z,1006.68
2018-11-22T07:19:10.737Z,1006.64
2018-11-22T07:20:10.716Z,1006.66
2018-11-22T07:21:10.704Z,1006.66
2018-11-22T07:22:10.692Z,1006.68
2018-11-22T07:23:10.684Z,1006.75
2018-11-22T07:24:10.670Z,1006.71
2018-11-22T07:25:10.656Z,1006.74
2018-11-22T07:26:10.648Z,1006.71
2018-11-22T07:27:10.651Z,1006.74
2018-11-22T07:28:10.624Z,1006.74
2018-11-22T07:29:10.610Z,1006.75
2018-11-22T07:30:10.606Z,1006.74
2018-11-22T07:31:10.593Z,1006.74
2018-11-22T07:32:10.576Z,1006.75
2018-11-22T07:33:10.573Z,1006.70
2018-11-22T07:34:10.576Z,1006.72
2018-11-22T07:35:10.598Z,1006.71
2018-11-22T07:36:10.551Z,1006.72
2018-11-22T07:37:10.555Z,1006.72
2018-11-22T07:38:10.525Z,1006.74
2018-11-22T07:39:10.504Z,1006.71
2018-11-22T07:40:10.489Z,1006.70
2018-11-22T07:41:10.480Z,1006.73
2018-11-22T07:42:10.465Z,1006.72
2018-11-22T07:43:10.457Z,1006.71
2018-11-22T07:44:10.450Z,1006.71
2018-11-22T07:45:10.445Z,1006.70
2018-11-22T07:46:10.448Z,1006.71
2018-11-22T07:47:10.434Z,1006.73
2018-11-22T07:48:10.403Z,1006.72
2018-11-22T07:49:10.386Z,1006.73
2018-11-22T07:50:10.391Z,1006.74
2018-11-22T07:51:10.431Z,1006.74
2018-11-22T07:52:10.356Z,1006.73
2018-11-22T07:53:10.349Z,1006.75
2018-11-22T07:54:10.335Z,1006.77
2018-11-22T07:55:10.319Z,1006.71
2018-11-22T07:56:10.310Z,1006.75
2018-11-22T07:57:10.309Z,1006.71
2018-11-22T07:58:10.292Z,1006.72
2018-11-22T07:59:10.285Z,1006.71
2018-11-22T08:00:10.298Z,1006.72
2018-11-22T08:01:10.253Z,1006.69
2018-11-22T08:02:10.242Z,1006.69
2018-11-22T08:03:10.239Z,1006.68
2018-11-22T08:04:10.228Z,1006.66
2018-11-22T08:05:10.216Z,1006.62
2018-11-22T08:06:10.201Z,1006.63
2018-11-22T08:07:10.189Z,1006.64
2018-11-22T08:08:10.178Z,1006.64
2018-11-22T08:09:10.171Z,1006.70
2018-11-22T08:10:10.162Z,1006.72
2018-11-22T08:11:10.151Z,1006.73
2018-11-22T08:12:12.219Z,1006.74
2018-11-22T08:13:10.123Z,1006.78
2018-11-22T08:14:10.116Z,1006.80
2018-11-22T08:15:10.099Z,1006.81
2018-11-22T08:16:10.132Z,1006.79
2018-11-22T08:17:10.085Z,1006.84
2018-11-22T08:18:10.074Z,1006.84
2018-11-22T08:19:10.063Z,1006.85
2018-11-22T08:20:10.046Z,1006.83
2018-11-22T08:21:10.037Z,1006.84
2018-11-22T08:22:10.021Z,1006.82
2018-11-22T08:23:10.015Z,1006.87
2018-11-22T08:24:10.007Z,1006.86
2018-11-22T08:25:10.035Z,1006.86
2018-11-22T08:26:09.978Z,1006.91
2018-11-22T08:27:09.964Z,1006.90
2018-11-22T08:28:09.966Z,1006.92
2018-11-22T08:29:09.953Z,1006.93
2018-11-22T08:30:10.229Z,1006.93
2018-11-22T08:31:09.928Z,1006.93
2018-11-22T08:32:09.910Z,1006.95
2018-11-22T08:33:09.901Z,1006.97
2018-11-22T08:34:09.892Z,1006.97
2018-11-22T08:35:09.875Z,1006.96
2018-11-22T08:36:09.876Z,1006.97
2018-11-22T08:37:09.859Z,1006.99
2018-11-22T08:38:09.854Z,1007.00
2018-11-22T08:39:09.842Z,1007.01
2018-11-22T08:40:09.869Z,1007.05
2018-11-22T08:41:09.816Z,1007.06
2018-11-22T08:42:09.809Z,1007.09
2018-11-22T08:43:09.800Z,1007.10
2018-11-22T08:44:09.819Z,1007.11
2018-11-22T08:45:09.775Z,1007.16
2018-11-22T08:46:09.763Z,1007.16
2018-11-22T08:47:12.199Z,1007.16
2018-11-22T08:48:09.752Z,1007.16
2018-11-22T08:49:09.739Z,1007.18
2018-11-22T08:50:09.732Z,1007.20
2018-11-22T08:51:09.719Z,1007.22
2018-11-22T08:52:09.712Z,1007.20
2018-11-22T08:53:09.691Z,1007.19
2018-11-22T08:54:09.681Z,1007.19
2018-11-22T08:55:09.671Z,1007.19
2018-11-22T08:56:09.659Z,1007.19
2018-11-22T08:57:09.657Z,1007.19
2018-11-22T08:58:09.640Z,1007.18
2018-11-22T08:59:09.632Z,1007.19
2018-11-22T09:00:09.619Z,1007.17
2018-11-22T09:01:09.617Z,1007.16
2018-11-22T09:02:09.631Z,1007.17
2018-11-22T09:03:09.601Z,1007.16
2018-11-22T09:04:09.573Z,1007.17
2018-11-22T09:05:09.563Z,1007.16
2018-11-22T09:06:09.550Z,1007.22
2018-11-22T09:07:09.553Z,1007.21
2018-11-22T09:08:09.545Z,1007.24
2018-11-22T09:09:09.531Z,1007.26
2018-11-22T09:10:09.515Z,1007.26
2018-11-22T09:11:09.499Z,1007.26
2018-11-22T09:12:09.489Z,1007.29
2018-11-22T09:13:09.485Z,1007.26
2018-11-22T09:14:09.475Z,1007.26
2018-11-22T09:15:09.476Z,1007.31
2018-11-22T09:16:09.443Z,1007.27
2018-11-22T09:17:09.437Z,1007.30
2018-11-22T09:18:09.428Z,1007.31
2018-11-22T09:19:09.410Z,1007.31
2018-11-22T09:20:09.402Z,1007.31
2018-11-22T09:21:09.392Z,1007.30
2018-11-22T09:22:09.382Z,1007.36
2018-11-22T09:23:09.390Z,1007.34
2018-11-22T09:24:09.365Z,1007.25
2018-11-22T09:25:09.347Z,1007.30
2018-11-22T09:26:09.346Z,1007.30
2018-11-22T09:27:09.366Z,1007.31
2018-11-22T09:28:09.317Z,1007.35
2018-11-22T09:29:09.314Z,1007.30
2018-11-22T09:30:09.300Z,1007.32
2018-11-22T09:31:09.299Z,1007.32
2018-11-22T09:32:09.281Z,1007.35
2018-11-22T09:33:09.265Z,1007.36
2018-11-22T09:34:09.255Z,1007.40
2018-11-22T09:35:09.293Z,1007.39
2018-11-22T09:36:09.237Z,1007.37
2018-11-22T09:37:09.224Z,1007.36
2018-11-22T09:38:09.235Z,1007.39
2018-11-22T09:39:09.197Z,1007.42
2018-11-22T09:40:09.192Z,1007.41
2018-11-22T09:41:09.176Z,1007.45
2018-11-22T09:42:09.177Z,1007.45
2018-11-22T09:43:09.159Z,1007.44
2018-11-22T09:44:09.165Z,1007.45
2018-11-22T09:45:09.144Z,1007.45
2018-11-22T09:46:09.125Z,1007.49
2018-11-22T09:47:09.116Z,1007.50
2018-11-22T09:48:09.113Z,1007.43
2018-11-22T09:49:09.106Z,1007.40
2018-11-22T09:50:09.093Z,1007.44
2018-11-22T09:51:09.080Z,1007.42
2018-11-22T09:52:09.066Z,1007.46
2018-11-22T09:53:09.060Z,1007.43
2018-11-22T09:54:09.083Z,1007.41
2018-11-22T09:55:09.044Z,1007.39
2018-11-22T09:56:09.035Z,1007.42
2018-11-22T09:57:09.015Z,1007.38
2018-11-22T09:58:09.004Z,1007.40
2018-11-22T09:59:09.086Z,1007.36
2018-11-22T10:00:08.992Z,1007.35
2018-11-22T10:01:08.974Z,1007.37
2018-11-22T10:02:08.982Z,1007.37
2018-11-22T10:03:09.039Z,1007.38
2018-11-22T10:04:08.945Z,1007.32
2018-11-22T10:05:09.097Z,1007.29
2018-11-22T10:06:08.930Z,1007.34
2018-11-22T10:07:08.928Z,1007.34
2018-11-22T10:08:08.915Z,1007.32
2018-11-22T10:09:08.914Z,1007.32
2018-11-22T10:10:08.893Z,1007.32
2018-11-22T10:11:08.872Z,1007.35
2018-11-22T10:12:08.868Z,1007.29
2018-11-22T10:13:08.866Z,1007.29
2018-11-22T10:14:08.857Z,1007.28
2018-11-22T10:15:08.840Z,1007.28
2018-11-22T10:16:08.827Z,1007.25
2018-11-22T10:17:08.898Z,1007.28
2018-11-22T10:18:08.811Z,1007.28
2018-11-22T10:19:08.806Z,1007.28
2018-11-22T10:20:08.784Z,1007.26
2018-11-22T10:21:08.778Z,1007.28
2018-11-22T10:22:08.789Z,1007.28
2018-11-22T10:23:08.760Z,1007.27
2018-11-22T10:24:09.457Z,1007.28
2018-11-22T10:25:08.745Z,1007.33
2018-11-22T10:26:08.763Z,1007.32
2018-11-22T10:27:08.728Z,1007.29
2018-11-22T10:28:08.706Z,1007.31
2018-11-22T10:29:08.714Z,1007.30
2018-11-22T10:30:08.766Z,1007.30
2018-11-22T10:31:08.684Z,1007.28
2018-11-22T10:32:08.695Z,1007.28
2018-11-22T10:33:08.678Z,1007.29
2018-11-22T10:34:08.655Z,1007.27
2018-11-22T10:35:08.685Z,1007.26
2018-11-22T10:36:08.662Z,1007.27
2018-11-22T10:37:08.656Z,1007.26
2018-11-22T10:38:08.662Z,1007.32
2018-11-22T10:39:08.688Z,1007.30
2018-11-22T10:40:08.587Z,1007.29
2018-11-22T10:41:08.578Z,1007.32
2018-11-22T10:42:08.572Z,1007.31
2018-11-22T10:43:08.656Z,1007.26
2018-11-22T10:44:08.563Z,1007.27
2018-11-22T10:45:08.552Z,1007.25
2018-11-22T10:46:08.545Z,1007.25
2018-11-22T10:47:08.526Z,1007.31
2018-11-22T10:48:08.527Z,1007.26
2018-11-22T10:49:08.505Z,1007.21
2018-11-22T10:50:08.497Z,1007.26
2018-11-22T10:51:08.487Z,1007.22
2018-11-22T10:52:08.492Z,1007.20
2018-11-22T10:53:08.504Z,1007.21
2018-11-22T10:54:08.450Z,1007.20
2018-11-22T10:55:08.448Z,1007.22
2018-11-22T10:56:08.444Z,1007.19
2018-11-22T10:57:08.422Z,1007.19
2018-11-22T10:58:08.423Z,1007.22
2018-11-22T10:59:08.414Z,1007.21
2018-11-22T11:00:08.402Z,1007.17
2018-11-22T11:01:08.396Z,1007.18
2018-11-22T11:02:08.374Z,1007.25
2018-11-22T11:03:08.375Z,1007.21
2018-11-22T11:04:08.367Z,1007.20
2018-11-22T11:05:08.351Z,1007.20
2018-11-22T11:06:08.341Z,1007.16
2018-11-22T11:07:08.349Z,1007.17
2018-11-22T11:08:08.322Z,1007.17
2018-11-22T11:09:08.319Z,1007.21
2018-11-22T11:10:08.307Z,1007.23
2018-11-22T11:11:08.292Z,1007.22
2018-11-22T11:12:08.294Z,1007.22
2018-11-22T11:13:08.302Z,1007.21
2018-11-22T11:14:08.274Z,1007.25
2018-11-22T11:15:08.266Z,1007.20
2018-11-22T11:16:08.257Z,1007.19
2018-11-22T11:17:08.276Z,1007.22
2018-11-22T11:18:08.229Z,1007.24
2018-11-22T11:19:08.221Z,1007.27
2018-11-22T11:20:08.298Z,1007.25
2018-11-22T11:21:08.211Z,1007.23
2018-11-22T11:22:08.251Z,1007.28
2018-11-22T11:23:08.194Z,1007.20
2018-11-22T11:24:08.205Z,1007.22
2018-11-22T11:25:08.220Z,1007.25
2018-11-22T11:26:08.164Z,1007.26
2018-11-22T11:27:08.155Z,1007.25
2018-11-22T11:28:08.160Z,1007.26
2018-11-22T11:29:12.703Z,1007.25
2018-11-22T11:30:08.127Z,1007.27
2018-11-22T11:31:08.115Z,1007.29
2018-11-22T11:32:08.138Z,1007.23
2018-11-22T11:33:08.092Z,1007.23
2018-11-22T11:34:08.086Z,1007.24
2018-11-22T11:35:08.087Z,1007.22
2018-11-22T11:36:08.133Z,1007.18
2018-11-22T11:37:08.058Z,1007.16
2018-11-22T11:38:08.049Z,1007.17
2018-11-22T11:39:08.036Z,1007.14
2018-11-22T11:40:08.028Z,1007.17
2018-11-22T11:41:08.027Z,1007.18
2018-11-22T11:42:08.014Z,1007.16
2018-11-22T11:43:08.008Z,1007.18
2018-11-22T11:44:07.992Z,1007.16
2018-11-22T11:45:07.988Z,1007.18
2018-11-22T11:46:07.981Z,1007.20
2018-11-22T11:47:07.968Z,1007.16
2018-11-22T11:48:07.956Z,1007.11
2018-11-22T11:49:07.958Z,1007.10
2018-11-22T11:50:07.940Z,1007.08
2018-11-22T11:51:07.936Z,1007.04
2018-11-22T11:52:07.953Z,1007.03
2018-11-22T11:53:07.912Z,1007.02
2018-11-22T11:54:07.916Z,1006.98
2018-11-22T11:55:07.913Z,1006.96
2018-11-22T11:56:07.905Z,1006.93
2018-11-22T11:57:07.897Z,1006.94
2018-11-22T11:58:07.867Z,1006.91
2018-11-22T11:59:07.859Z,1006.88
2018-11-22T12:00:07.855Z,1006.89
2018-11-22T12:01:07.857Z,1006.91
2018-11-22T12:02:07.852Z,1006.91
2018-11-22T12:03:07.826Z,1006.88
2018-11-22T12:04:07.813Z,1006.90
2018-11-22T12:05:07.808Z,1006.85
2018-11-22T12:06:07.801Z,1006.87
2018-11-22T12:07:07.810Z,1006.84
2018-11-22T12:08:07.786Z,1006.84
2018-11-22T12:09:07.780Z,1006.82
2018-11-22T12:10:07.786Z,1006.82
2018-11-22T12:11:07.758Z,1006.81
2018-11-22T12:12:07.754Z,1006.83
2018-11-22T12:13:07.765Z,1006.88
2018-11-22T12:14:07.726Z,1006.89
2018-11-22T12:15:07.754Z,1006.88
2018-11-22T12:16:07.714Z,1006.81
2018-11-22T12:17:07.708Z,1006.80
2018-11-22T12:18:07.697Z,1006.82
2018-11-22T12:19:07.690Z,1006.80
2018-11-22T12:21:29.721Z,1006.82